Time;durP1;ratioP1;P1;durP2;ratioP2;P2;SDS_P1;SDS_P2;PMS_P1;PMS_P2;Temp;Humidity;BMP_temperature;BMP_pressure;BME280_temperature;BME280_humidity;BME280_pressure;Samples;Min_cycle;Max_cycle;Signal;HPM_P1;HPM_P2
2022/06/17 00:01:50;;;;;;;5.70;2.50;;;14.20;99.90;;;;;;4946630;28;20496;-82
2022/06/17 00:04:17;;;;;;;4.80;2.30;;;14.20;99.90;;;;;;4946598;28;20407;-82
2022/06/17 00:06:53;;;;;;;5.87;2.37;;;14.20;99.90;;;;;;4949795;28;20409;-82
2022/06/17 00:09:22;;;;;;;4.68;2.33;;;14.20;99.90;;;;;;4949503;28;20825;-83
2022/06/17 00:11:50;;;;;;;8.30;2.67;;;14.10;99.90;;;;;;4958372;28;20416;-83
2022/06/17 00:14:22;;;;;;;7.67;2.33;;;14.10;99.90;;;;;;4955085;28;20395;-82
2022/06/17 00:16:50;;;;;;;7.13;2.35;;;14.00;99.90;;;;;;4957801;28;20401;-82
2022/06/17 00:19:19;;;;;;;7.40;2.47;;;14.00;99.90;;;;;;4955268;28;20405;-82
2022/06/17 00:21:51;;;;;;;3.92;2.28;;;14.00;99.90;;;;;;4956940;28;20753;-82
2022/06/17 00:24:25;;;;;;;5.57;2.45;;;13.90;99.90;;;;;;4943711;28;20430;-82
2022/06/17 00:26:54;;;;;;;5.60;2.30;;;13.90;99.90;;;;;;4956524;28;20915;-82
2022/06/17 00:29:26;;;;;;;5.40;2.40;;;13.90;99.90;;;;;;4951227;28;20394;-81
2022/06/17 00:31:54;;;;;;;4.83;2.47;;;13.90;99.90;;;;;;4949764;28;20408;-82
2022/06/17 00:34:23;;;;;;;7.10;2.55;;;13.80;99.90;;;;;;4953702;28;20446;-83
2022/06/17 00:37:02;;;;;;;5.65;2.60;;;13.80;99.90;;;;;;4948047;28;20493;-82
2022/06/17 00:39:35;;;;;;;4.43;2.40;;;13.80;99.90;;;;;;4949411;28;20414;-81
2022/06/17 00:42:09;;;;;;;4.82;2.30;;;13.80;99.90;;;;;;4960762;28;20411;-82
2022/06/17 00:45:02;;;;;;;6.95;2.78;;;13.70;99.90;;;;;;4962364;28;20950;-82
2022/06/17 00:47:38;;;;;;;5.68;2.38;;;13.80;99.90;;;;;;4957359;28;20452;-82
2022/06/17 00:50:15;;;;;;;5.35;2.78;;;13.70;99.90;;;;;;4963212;28;20410;-81
2022/06/17 00:52:58;;;;;;;5.70;2.40;;;13.60;99.90;;;;;;4939594;29;20414;-82
2022/06/17 00:55:42;;;;;;;7.32;2.58;;;13.60;99.90;;;;;;4942756;28;20405;-82
2022/06/17 00:58:19;;;;;;;5.65;2.70;;;13.60;99.90;;;;;;4938638;29;20418;-82
2022/06/17 01:00:52;;;;;;;5.53;2.47;;;13.60;99.90;;;;;;4950223;28;20410;-80
2022/06/17 01:03:25;;;;;;;4.38;2.40;;;13.50;99.90;;;;;;4955590;28;20478;-82
2022/06/17 01:06:04;;;;;;;5.72;2.45;;;13.50;99.90;;;;;;4955306;28;20445;-82
2022/06/17 01:11:25;;;;;;;5.05;2.58;;;13.50;99.90;;;;;;4957981;28;20418;-82
2022/06/17 01:13:54;;;;;;;5.40;2.53;;;13.50;99.90;;;;;;4953713;28;20423;-81
2022/06/17 01:16:28;;;;;;;3.83;2.00;;;13.50;99.90;;;;;;4940567;28;20425;-83
2022/06/17 01:19:20;;;;;;;4.13;2.15;;;13.40;99.90;;;;;;4952575;28;20501;-82
2022/06/17 01:21:53;;;;;;;4.28;2.33;;;13.40;99.90;;;;;;4968579;28;20411;-82
2022/06/17 01:24:22;;;;;;;4.75;2.60;;;13.40;99.90;;;;;;4954864;28;20465;-82
2022/06/17 01:26:50;;;;;;;6.22;2.40;;;13.40;99.90;;;;;;4949478;28;20427;-81
2022/06/17 01:29:17;;;;;;;5.38;2.55;;;13.30;99.90;;;;;;4947089;28;20402;-81
2022/06/17 01:31:51;;;;;;;3.57;2.30;;;13.30;99.90;;;;;;4943112;28;20501;-81
2022/06/17 01:34:21;;;;;;;4.43;2.55;;;13.30;99.90;;;;;;4954378;28;20417;-82
2022/06/17 01:36:49;;;;;;;5.03;2.80;;;13.30;99.90;;;;;;4958634;28;20498;-83
2022/06/17 01:39:18;;;;;;;4.25;2.45;;;13.30;99.90;;;;;;4947218;28;20449;-82
2022/06/17 01:41:47;;;;;;;4.80;2.30;;;13.30;99.90;;;;;;4937657;28;20416;-81
2022/06/17 01:44:27;;;;;;;4.45;2.83;;;13.30;99.90;;;;;;4953746;28;20741;-82
2022/06/17 01:46:57;;;;;;;4.63;2.77;;;13.30;99.90;;;;;;4944972;28;20459;-82
2022/06/17 01:49:27;;;;;;;5.00;2.78;;;13.30;99.90;;;;;;4960834;28;20420;-83
2022/06/17 01:51:59;;;;;;;5.50;3.00;;;13.30;99.90;;;;;;4957076;28;20423;-82
2022/06/17 01:54:32;;;;;;;3.92;2.60;;;13.30;99.90;;;;;;4949477;28;20416;-79
2022/06/17 01:57:03;;;;;;;4.85;2.65;;;13.20;99.90;;;;;;4948987;28;20418;-81
2022/06/17 01:59:42;;;;;;;4.20;2.57;;;13.20;99.90;;;;;;4953880;28;20403;-82
2022/06/17 02:02:15;;;;;;;4.25;2.75;;;13.20;99.90;;;;;;4953535;28;20509;-82
2022/06/17 02:04:50;;;;;;;4.37;2.80;;;13.20;99.90;;;;;;4951368;28;20405;-82
2022/06/17 02:07:27;;;;;;;4.93;2.72;;;13.20;99.90;;;;;;4959935;28;20418;-82
2022/06/17 02:09:55;;;;;;;2.60;2.30;;;13.20;99.90;;;;;;4943443;28;20402;-82
2022/06/17 02:12:24;;;;;;;3.53;2.60;;;13.20;99.90;;;;;;4957240;28;20394;-82
2022/06/17 02:14:59;;;;;;;3.30;2.40;;;13.10;99.90;;;;;;4953050;28;20912;-82
2022/06/17 02:17:48;;;;;;;4.70;2.50;;;13.10;99.90;;;;;;4960051;28;20476;-82
2022/06/17 02:20:38;;;;;;;3.85;2.60;;;13.10;99.90;;;;;;4948123;28;20415;-82
2022/06/17 02:23:06;;;;;;;3.80;2.40;;;13.10;99.90;;;;;;4958302;28;20938;-82
2022/06/17 02:25:39;;;;;;;5.78;2.92;;;13.00;99.90;;;;;;4949944;28;20396;-82
2022/06/17 02:28:11;;;;;;;3.63;2.38;;;13.00;99.90;;;;;;4946165;28;20970;-82
2022/06/17 02:30:41;;;;;;;5.05;2.78;;;13.00;99.90;;;;;;4947045;28;20438;-82
2022/06/17 02:33:11;;;;;;;8.05;2.67;;;13.00;99.90;;;;;;4938265;28;20834;-83
2022/06/17 02:35:50;;;;;;;5.50;2.70;;;13.00;99.90;;;;;;4951328;28;20394;-83
2022/06/17 02:38:20;;;;;;;3.92;2.70;;;13.00;99.90;;;;;;4931924;28;20919;-82
2022/06/17 02:40:52;;;;;;;4.20;2.45;;;12.90;99.90;;;;;;4945158;28;20412;-83
2022/06/17 02:43:24;;;;;;;4.07;2.78;;;13.00;99.90;;;;;;4954968;28;20410;-83
2022/06/17 02:46:10;;;;;;;3.80;2.75;;;12.90;99.90;;;;;;4963693;28;20897;-82
2022/06/17 02:48:51;;;;;;;4.47;3.00;;;12.90;99.90;;;;;;4957227;28;20403;-82
2022/06/17 02:51:22;;;;;;;5.10;3.03;;;13.00;99.90;;;;;;4943452;28;20754;-81
2022/06/17 02:53:50;;;;;;;3.55;2.58;;;12.90;99.90;;;;;;4950546;28;20412;-83
2022/06/17 02:56:27;;;;;;;4.50;2.85;;;13.00;99.90;;;;;;4958683;28;20403;-83
2022/06/17 02:59:23;;;;;;;4.00;3.05;;;12.90;99.90;;;;;;4967579;28;20769;-82
2022/06/17 03:01:56;;;;;;;4.50;2.88;;;12.90;99.90;;;;;;4944760;28;20450;-82
2022/06/17 03:04:39;;;;;;;3.77;3.03;;;12.90;99.90;;;;;;4952498;28;20762;-82
2022/06/17 03:07:14;;;;;;;7.20;3.10;;;12.90;99.90;;;;;;4954201;28;20416;-83
2022/06/17 03:09:44;;;;;;;4.57;3.17;;;12.90;99.90;;;;;;4954903;28;20396;-82
2022/06/17 03:12:25;;;;;;;4.47;3.43;;;12.90;99.90;;;;;;4960805;28;20472;-82
2022/06/17 03:15:10;;;;;;;3.22;2.90;;;12.90;99.90;;;;;;4949911;28;20496;-83
2022/06/17 03:17:44;;;;;;;3.63;3.10;;;12.90;99.90;;;;;;4948188;28;20437;-82
2022/06/17 03:20:23;;;;;;;3.75;3.30;;;12.80;99.90;;;;;;4957657;28;20924;-82
2022/06/17 03:22:58;;;;;;;3.60;3.30;;;12.80;99.90;;;;;;4939634;28;20411;-82
2022/06/17 03:25:47;;;;;;;4.68;2.95;;;12.80;99.90;;;;;;4940764;28;20401;-83
2022/06/17 03:28:22;;;;;;;3.77;3.17;;;12.90;99.90;;;;;;4954428;28;20477;-82
2022/06/17 03:30:58;;;;;;;3.67;3.28;;;12.90;99.90;;;;;;4933893;28;20414;-81
2022/06/17 03:33:43;;;;;;;4.65;3.15;;;12.90;99.90;;;;;;4951909;28;20417;-82
2022/06/17 03:36:32;;;;;;;3.00;2.70;;;12.90;99.90;;;;;;4968609;28;20900;-82
2022/06/17 03:39:03;;;;;;;3.67;3.30;;;12.90;99.90;;;;;;4961933;28;20428;-82
2022/06/17 03:41:43;;;;;;;3.67;2.90;;;12.90;99.90;;;;;;4954641;28;20973;-83
2022/06/17 03:44:18;;;;;;;3.05;2.70;;;12.90;99.90;;;;;;4959769;28;20515;-83
2022/06/17 03:46:58;;;;;;;3.15;2.70;;;12.90;99.90;;;;;;4961524;28;20430;-83
2022/06/17 03:49:42;;;;;;;3.88;3.17;;;12.90;99.90;;;;;;4956986;28;20422;-83
2022/06/17 03:52:43;;;;;;;3.58;2.95;;;12.90;99.90;;;;;;4961468;28;20395;-83
2022/06/17 03:55:18;;;;;;;3.37;3.07;;;13.00;99.90;;;;;;4953299;28;20479;-81
2022/06/17 03:57:50;;;;;;;3.25;2.95;;;12.90;99.90;;;;;;4946698;28;20422;-82
2022/06/17 04:00:42;;;;;;;3.33;2.95;;;12.90;99.90;;;;;;4933848;28;20460;-83
2022/06/17 04:03:16;;;;;;;3.42;2.90;;;12.90;99.90;;;;;;4952812;28;20760;-82
2022/06/17 04:05:50;;;;;;;3.75;2.90;;;12.90;99.90;;;;;;4955837;28;20456;-83
2022/06/17 04:08:18;;;;;;;3.67;3.00;;;12.90;99.90;;;;;;4933154;28;20402;-83
2022/06/17 04:10:46;;;;;;;3.80;3.10;;;13.00;99.90;;;;;;4949326;28;20476;-83
2022/06/17 04:13:18;;;;;;;3.88;2.90;;;13.00;99.90;;;;;;4953707;28;20828;-82
2022/06/17 04:16:28;;;;;;;3.43;2.83;;;13.00;99.90;;;;;;4947386;28;20910;-84
2022/06/17 04:19:12;;;;;;;3.75;3.00;;;12.90;99.90;;;;;;4950392;28;20425;-83
2022/06/17 04:21:43;;;;;;;3.65;3.25;;;12.90;99.90;;;;;;4945098;28;20476;-84
2022/06/17 04:24:17;;;;;;;4.38;3.20;;;13.00;99.90;;;;;;4967270;28;20418;-83
2022/06/17 04:26:59;;;;;;;4.13;3.33;;;12.90;99.90;;;;;;4959995;28;20425;-82
2022/06/17 04:29:50;;;;;;;5.15;3.75;;;13.00;99.90;;;;;;4952599;28;20410;-83
2022/06/17 04:32:30;;;;;;;3.70;3.08;;;13.00;99.90;;;;;;4948766;28;20422;-84
2022/06/17 04:34:59;;;;;;;3.30;3.00;;;12.90;99.90;;;;;;4952538;28;20422;-83
2022/06/17 04:37:28;;;;;;;3.70;3.10;;;13.00;99.90;;;;;;4965802;28;20430;-82
2022/06/17 04:40:36;;;;;;;3.47;3.17;;;13.00;99.90;;;;;;4954104;28;20404;-83
2022/06/17 04:43:28;;;;;;;3.92;3.00;;;13.00;99.90;;;;;;4969740;28;20410;-82
2022/06/17 04:46:26;;;;;;;3.63;3.00;;;13.00;99.90;;;;;;4964725;28;20924;-80
2022/06/17 04:48:57;;;;;;;6.07;3.30;;;13.00;99.90;;;;;;4978170;28;20919;-81
2022/06/17 04:51:33;;;;;;;4.75;3.05;;;13.00;99.90;;;;;;4951089;28;20482;-82
2022/06/17 04:54:06;;;;;;;5.70;3.83;;;13.00;99.90;;;;;;4953485;28;20781;-83
2022/06/17 04:57:06;;;;;;;6.05;3.45;;;13.10;99.90;;;;;;4950161;28;20407;-82
2022/06/17 04:59:46;;;;;;;3.33;2.80;;;13.10;99.90;;;;;;4942612;28;20424;-83
2022/06/17 05:02:22;;;;;;;3.35;3.00;;;13.10;99.90;;;;;;4959285;28;20465;-83
2022/06/17 05:05:04;;;;;;;3.50;3.20;;;13.10;99.90;;;;;;4960240;28;20402;-83
2022/06/17 05:07:39;;;;;;;6.70;3.40;;;13.20;99.90;;;;;;4949086;28;20407;-85
2022/06/17 05:10:33;;;;;;;5.28;3.30;;;13.30;99.90;;;;;;4953881;28;20426;-83
2022/06/17 05:13:04;;;;;;;4.50;3.03;;;13.30;99.90;;;;;;4960476;28;20413;-81
2022/06/17 05:15:32;;;;;;;23.58;15.90;;;13.30;99.90;;;;;;4975698;28;20456;-84
2022/06/17 05:18:02;;;;;;;8.68;6.30;;;13.30;99.90;;;;;;4959609;28;20395;-83
2022/06/17 05:20:30;;;;;;;6.70;4.47;;;13.40;99.90;;;;;;4962736;28;20414;-83
2022/06/17 05:23:04;;;;;;;3.20;2.65;;;13.40;99.90;;;;;;4943281;28;20716;-82
2022/06/17 05:25:39;;;;;;;8.07;3.70;;;13.40;99.90;;;;;;4955983;28;20420;-82
2022/06/17 05:28:11;;;;;;;5.63;2.88;;;13.40;99.90;;;;;;4955817;28;20424;-81
2022/06/17 05:30:41;;;;;;;3.10;2.22;;;13.50;99.90;;;;;;4942378;28;20402;-83
2022/06/17 05:33:14;;;;;;;2.90;2.40;;;13.50;99.90;;;;;;4956032;28;20454;-82
2022/06/17 05:35:43;;;;;;;3.08;2.40;;;13.60;99.90;;;;;;4940477;28;20398;-82
2022/06/17 05:38:12;;;;;;;3.13;2.60;;;13.70;99.90;;;;;;4972815;28;20811;-83
2022/06/17 05:40:41;;;;;;;3.42;2.30;;;13.70;99.90;;;;;;4955940;28;20420;-82
2022/06/17 05:43:11;;;;;;;4.55;2.30;;;13.70;99.90;;;;;;4951794;28;20410;-83
2022/06/17 05:45:39;;;;;;;5.00;2.10;;;13.70;99.90;;;;;;4963891;28;20819;-83
2022/06/17 05:48:24;;;;;;;3.30;2.20;;;13.70;99.90;;;;;;4953383;28;20404;-82
2022/06/17 05:51:04;;;;;;;3.50;2.03;;;13.70;99.90;;;;;;4949428;28;20418;-83
2022/06/17 05:53:47;;;;;;;2.90;1.50;;;13.80;99.90;;;;;;4956122;28;20403;-83
2022/06/17 05:56:27;;;;;;;3.17;1.73;;;13.90;99.90;;;;;;4946859;28;20490;-81
2022/06/17 05:58:55;;;;;;;4.03;2.00;;;14.10;99.90;;;;;;4954116;28;20452;-81
2022/06/17 06:01:23;;;;;;;3.03;1.60;;;14.10;99.90;;;;;;4958738;28;20411;-81
2022/06/17 06:03:51;;;;;;;3.03;1.85;;;14.10;99.90;;;;;;4964018;28;20442;-82
2022/06/17 06:06:20;;;;;;;2.60;1.90;;;14.10;99.90;;;;;;4959718;28;20434;-82
2022/06/17 06:08:51;;;;;;;2.05;1.60;;;14.10;99.90;;;;;;4948966;28;20422;-83
2022/06/17 06:11:19;;;;;;;2.28;1.50;;;14.10;99.90;;;;;;4947886;28;20548;-83
2022/06/17 06:13:47;;;;;;;2.80;1.75;;;14.20;99.90;;;;;;4958440;28;20495;-83
2022/06/17 06:16:16;;;;;;;2.05;1.42;;;14.20;99.90;;;;;;4959210;28;20410;-83
2022/06/17 06:18:50;;;;;;;1.95;1.58;;;14.30;99.90;;;;;;4958102;28;20420;-83
2022/06/17 06:21:21;;;;;;;3.70;1.90;;;14.40;99.90;;;;;;4957519;28;20423;-83
2022/06/17 06:23:50;;;;;;;1.75;1.60;;;14.50;99.90;;;;;;4961415;28;20902;-82
2022/06/17 06:26:30;;;;;;;2.58;1.85;;;14.50;99.90;;;;;;4959558;28;20452;-83
2022/06/17 06:29:15;;;;;;;2.10;1.40;;;14.40;99.90;;;;;;4958727;28;20487;-83
2022/06/17 06:31:44;;;;;;;2.50;1.40;;;14.40;99.90;;;;;;4955110;28;20415;-83
2022/06/17 06:34:32;;;;;;;2.55;1.40;;;14.50;99.90;;;;;;4954272;28;20463;-82
2022/06/17 06:37:01;;;;;;;1.77;1.50;;;14.60;99.90;;;;;;4957657;28;20497;-82
2022/06/17 06:39:29;;;;;;;2.47;1.80;;;14.70;99.90;;;;;;4960458;28;20963;-82
2022/06/17 06:41:59;;;;;;;1.83;1.40;;;14.70;99.90;;;;;;4955871;28;20411;-82
2022/06/17 06:44:27;;;;;;;2.25;1.30;;;14.90;99.90;;;;;;4948806;28;20413;-83
2022/06/17 06:46:58;;;;;;;1.77;1.55;;;15.00;99.90;;;;;;4958824;28;20412;-82
2022/06/17 06:49:36;;;;;;;1.67;1.23;;;14.90;99.90;;;;;;4953983;28;20420;-82
2022/06/17 06:52:04;;;;;;;2.63;1.20;;;15.00;99.90;;;;;;4944744;28;20403;-83
2022/06/17 06:54:31;;;;;;;1.65;1.10;;;14.90;99.90;;;;;;4954894;28;20413;-82
2022/06/17 06:57:00;;;;;;;2.05;1.20;;;14.90;99.90;;;;;;4953299;28;20469;-83
2022/06/17 06:59:48;;;;;;;1.50;1.20;;;15.00;99.90;;;;;;4929183;29;20392;-82
2022/06/17 07:02:17;;;;;;;1.50;1.00;;;15.00;99.90;;;;;;4954519;28;20424;-83
2022/06/17 07:04:46;;;;;;;4.00;1.40;;;15.00;99.90;;;;;;4952620;28;20430;-82
2022/06/17 07:07:14;;;;;;;6.10;1.40;;;14.90;99.90;;;;;;4959612;28;20518;-83
2022/06/17 07:09:42;;;;;;;2.75;1.05;;;14.90;99.90;;;;;;4937968;28;20390;-81
2022/06/17 07:12:09;;;;;;;3.93;1.30;;;14.90;99.90;;;;;;4946791;28;20460;-82
2022/06/17 07:14:37;;;;;;;3.20;1.20;;;15.00;99.90;;;;;;4955309;28;20418;-82
2022/06/17 07:17:05;;;;;;;1.67;0.90;;;15.00;99.90;;;;;;4946383;28;20404;-82
2022/06/17 07:19:34;;;;;;;2.28;1.20;;;15.10;99.90;;;;;;4950617;28;20407;-82
2022/06/17 07:22:01;;;;;;;2.72;1.10;;;15.10;99.90;;;;;;4962459;28;20943;-82
2022/06/17 07:24:29;;;;;;;2.03;1.00;;;15.10;99.90;;;;;;4948691;28;20424;-81
2022/06/17 07:26:57;;;;;;;2.25;0.90;;;15.20;99.90;;;;;;4950539;28;20402;-82
2022/06/17 07:29:24;;;;;;;1.27;0.90;;;15.20;99.90;;;;;;4932908;28;20460;-82
2022/06/17 07:31:52;;;;;;;2.13;1.05;;;15.30;99.90;;;;;;4945646;28;20408;-83
2022/06/17 07:34:19;;;;;;;1.30;1.00;;;15.30;99.90;;;;;;4938023;28;20411;-82
2022/06/17 07:42:19;;;;;;;2.05;1.13;;;15.80;99.90;;;;;;4948137;28;20424;-83
2022/06/17 07:44:46;;;;;;;1.30;1.10;;;15.70;99.90;;;;;;4954000;28;20457;-82
2022/06/17 07:47:17;;;;;;;4.20;1.20;;;15.70;99.90;;;;;;4959885;28;20402;-83
2022/06/17 07:49:45;;;;;;;1.23;1.00;;;15.70;99.90;;;;;;4951319;28;20423;-83
2022/06/17 07:52:14;;;;;;;1.02;0.93;;;15.80;99.90;;;;;;4956803;28;20393;-83
2022/06/17 07:54:42;;;;;;;1.60;0.90;;;15.90;99.90;;;;;;4954577;28;20465;-82
2022/06/17 07:57:11;;;;;;;4.07;1.10;;;15.90;99.90;;;;;;4960277;28;20415;-82
2022/06/17 07:59:40;;;;;;;1.90;1.10;;;16.00;99.90;;;;;;4952761;28;20419;-82
2022/06/17 08:02:08;;;;;;;1.20;0.90;;;16.00;99.90;;;;;;4957346;28;20419;-82
2022/06/17 08:04:37;;;;;;;2.90;1.00;;;16.00;99.90;;;;;;4956685;28;20416;-82
2022/06/17 08:07:05;;;;;;;1.17;0.85;;;16.20;99.90;;;;;;4947027;28;20880;-82
2022/06/17 08:09:33;;;;;;;1.83;0.93;;;16.20;99.90;;;;;;4957838;28;20413;-83
2022/06/17 08:12:01;;;;;;;2.50;1.00;;;16.10;99.90;;;;;;4956045;28;20904;-82
2022/06/17 08:14:28;;;;;;;2.50;1.02;;;16.10;99.90;;;;;;4955621;28;20501;-82
2022/06/17 08:16:57;;;;;;;2.50;1.00;;;16.20;99.90;;;;;;4947872;28;20410;-83
2022/06/17 08:19:25;;;;;;;1.17;1.00;;;16.20;99.90;;;;;;4953006;28;20420;-82
2022/06/17 08:21:52;;;;;;;1.80;1.00;;;16.20;99.90;;;;;;4957377;28;20410;-82
2022/06/17 08:24:25;;;;;;;2.60;1.30;;;16.10;99.90;;;;;;4954729;28;20413;-82
2022/06/17 08:26:52;;;;;;;1.15;1.05;;;16.00;99.90;;;;;;4952039;28;20409;-82
2022/06/17 08:29:20;;;;;;;4.72;1.67;;;16.10;99.90;;;;;;4950268;28;20938;-82
2022/06/17 08:34:55;;;;;;;1.05;0.90;;;16.40;99.90;;;;;;4951741;28;20425;-82
2022/06/17 08:37:23;;;;;;;2.15;1.10;;;16.50;99.90;;;;;;4964846;28;20900;-82
2022/06/17 08:39:52;;;;;;;1.30;1.20;;;16.40;99.90;;;;;;4958516;28;20408;-83
2022/06/17 08:42:38;;;;;;;1.98;1.17;;;16.30;99.90;;;;;;4955892;28;20418;-82
2022/06/17 08:45:29;;;;;;;2.47;1.20;;;16.20;99.90;;;;;;4960658;28;20411;-82
2022/06/17 08:48:12;;;;;;;2.53;1.25;;;16.30;99.90;;;;;;4957465;28;20434;-82
2022/06/17 08:51:12;;;;;;;2.67;1.42;;;16.40;99.90;;;;;;4952137;28;20411;-79
2022/06/17 08:54:09;;;;;;;3.33;1.33;;;16.70;99.90;;;;;;4937167;28;20415;-79
2022/06/17 08:56:58;;;;;;;2.17;1.30;;;16.70;99.90;;;;;;4952684;28;20423;-77
2022/06/17 08:59:58;;;;;;;2.58;1.58;;;16.70;99.90;;;;;;4948767;28;20409;-78
2022/06/17 09:03:27;;;;;;;2.92;1.27;;;16.50;99.90;;;;;;4955951;28;20416;-78
2022/06/17 09:06:06;;;;;;;1.33;1.08;;;16.60;99.90;;;;;;4961801;28;20407;-79
2022/06/17 09:09:09;;;;;;;4.13;1.30;;;16.80;99.90;;;;;;4964135;28;20407;-78
2022/06/17 09:11:50;;;;;;;2.20;1.17;;;16.90;99.90;;;;;;4999499;28;20419;-79
2022/06/17 09:14:28;;;;;;;1.90;1.10;;;16.80;99.90;;;;;;4948496;28;20420;-78
2022/06/17 09:17:06;;;;;;;2.13;1.27;;;16.80;99.90;;;;;;4950932;28;20477;-79
2022/06/17 09:19:41;;;;;;;3.28;1.00;;;16.80;99.90;;;;;;4959350;28;20415;-79
2022/06/17 09:22:24;;;;;;;1.40;1.10;;;16.80;99.90;;;;;;4955739;28;20485;-78
2022/06/17 09:24:56;;;;;;;1.10;1.00;;;16.90;99.90;;;;;;4954851;28;20457;-78
2022/06/17 09:27:33;;;;;;;1.27;1.00;;;17.00;99.90;;;;;;4962850;28;20409;-79
2022/06/17 09:30:20;;;;;;;1.08;0.95;;;17.00;99.90;;;;;;4935231;28;20820;-80
2022/06/17 09:33:06;;;;;;;1.73;1.02;;;17.10;99.90;;;;;;4951603;28;20419;-78
2022/06/17 09:35:43;;;;;;;1.85;1.00;;;17.20;99.90;;;;;;4950497;28;20412;-78
2022/06/17 09:38:37;;;;;;;1.20;1.10;;;17.10;99.90;;;;;;4950732;28;20404;-79
2022/06/17 09:41:12;;;;;;;2.43;0.90;;;17.10;99.90;;;;;;4957142;28;20398;-80
2022/06/17 09:43:56;;;;;;;1.67;1.02;;;17.10;99.90;;;;;;4953612;28;20409;-79
2022/06/17 09:46:41;;;;;;;1.90;1.00;;;17.00;99.90;;;;;;4960872;28;20400;-79
2022/06/17 09:49:25;;;;;;;1.92;1.10;;;17.20;99.90;;;;;;4953441;28;20777;-79
2022/06/17 09:52:12;;;;;;;0.80;0.80;;;17.30;99.90;;;;;;4956835;28;20387;-80
2022/06/17 09:55:17;;;;;;;1.95;1.10;;;17.40;99.90;;;;;;4952545;28;20489;-79
2022/06/17 09:58:00;;;;;;;1.73;0.90;;;17.70;99.90;;;;;;4948429;28;20423;-79
2022/06/17 10:00:38;;;;;;;2.42;0.90;;;17.60;99.90;;;;;;4957217;28;20541;-79
2022/06/17 10:03:18;;;;;;;1.40;0.90;;;17.40;99.90;;;;;;4955931;28;20464;-80
2022/06/17 10:06:08;;;;;;;1.73;0.98;;;17.20;99.90;;;;;;4949901;28;20428;-80
2022/06/17 10:08:59;;;;;;;2.05;1.00;;;17.10;99.90;;;;;;4955934;28;20405;-80
2022/06/17 10:11:42;;;;;;;1.25;1.15;;;17.40;99.90;;;;;;4938502;28;20929;-79
2022/06/17 10:14:46;;;;;;;2.47;1.08;;;17.80;99.90;;;;;;4955276;28;20408;-79
2022/06/17 10:20:26;;;;;;;2.72;1.00;;;17.70;99.90;;;;;;4950432;28;20407;-79
2022/06/17 10:23:29;;;;;;;1.80;0.90;;;17.60;99.90;;;;;;4959568;28;20412;-79
2022/06/17 10:26:29;;;;;;;2.30;0.93;;;17.50;99.90;;;;;;4953677;28;20393;-79
2022/06/17 10:29:05;;;;;;;3.72;1.08;;;17.50;99.90;;;;;;4981602;28;20492;-80
2022/06/17 10:31:37;;;;;;;4.25;1.10;;;17.80;99.90;;;;;;4938422;28;20811;-79
2022/06/17 10:34:29;;;;;;;3.73;1.00;;;18.00;99.90;;;;;;4953872;28;20962;-79
2022/06/17 10:37:01;;;;;;;5.90;1.20;;;18.00;99.90;;;;;;4955757;28;20409;-79
2022/06/17 10:39:32;;;;;;;2.42;1.17;;;18.00;99.90;;;;;;4959467;28;20410;-79
2022/06/17 10:42:01;;;;;;;5.20;1.20;;;17.90;99.90;;;;;;4953928;28;20416;-80
2022/06/17 10:44:31;;;;;;;3.40;1.23;;;17.90;99.90;;;;;;4958386;28;20412;-80
2022/06/17 10:47:09;;;;;;;2.50;1.00;;;18.10;99.90;;;;;;4958742;28;20426;-79
2022/06/17 10:49:49;;;;;;;1.95;0.98;;;18.20;99.90;;;;;;4952759;28;20408;-79
2022/06/17 10:52:32;;;;;;;3.47;1.10;;;18.30;99.90;;;;;;4957136;28;20405;-80
2022/06/17 10:55:03;;;;;;;3.00;0.90;;;18.40;99.90;;;;;;4951088;28;20419;-80
2022/06/17 10:57:37;;;;;;;2.10;0.93;;;18.50;99.90;;;;;;4961789;28;20407;-80
2022/06/17 11:00:23;;;;;;;1.80;1.00;;;18.50;99.90;;;;;;4948187;28;20986;-80
2022/06/17 11:02:51;;;;;;;1.40;1.00;;;18.60;99.90;;;;;;4950471;28;20406;-79
2022/06/17 11:05:31;;;;;;;3.63;1.00;;;18.60;99.90;;;;;;4945544;28;20414;-79
2022/06/17 11:08:00;;;;;;;3.22;0.90;;;18.50;99.90;;;;;;4928308;28;20433;-80
2022/06/17 11:10:30;;;;;;;2.50;1.00;;;18.60;99.90;;;;;;4960025;28;20444;-80
2022/06/17 11:13:07;;;;;;;2.10;0.90;;;18.80;99.90;;;;;;4950210;28;20757;-79
2022/06/17 11:15:47;;;;;;;2.80;1.15;;;18.90;99.90;;;;;;4959841;28;20402;-79
2022/06/17 11:18:21;;;;;;;3.60;1.15;;;19.00;99.90;;;;;;4951169;28;20918;-79
2022/06/17 11:20:59;;;;;;;1.40;1.00;;;19.00;99.90;;;;;;4950781;28;20975;-80
2022/06/17 11:23:33;;;;;;;1.20;0.98;;;19.10;99.90;;;;;;4934661;28;20460;-80
2022/06/17 11:26:25;;;;;;;1.20;1.10;;;19.20;99.90;;;;;;4959272;28;20391;-80
2022/06/17 11:29:15;;;;;;;3.63;1.35;;;19.40;99.90;;;;;;4952999;28;20395;-79
2022/06/17 11:31:49;;;;;;;1.98;1.05;;;19.40;99.90;;;;;;4945171;28;20436;-80
2022/06/17 11:34:26;;;;;;;2.88;1.00;;;19.40;99.90;;;;;;4955092;28;20468;-80
2022/06/17 11:37:18;;;;;;;1.70;0.80;;;19.60;99.90;;;;;;4957971;28;20412;-80
2022/06/17 11:39:47;;;;;;;1.23;1.02;;;19.60;99.90;;;;;;4962526;28;20932;-79
2022/06/17 11:42:22;;;;;;;2.70;1.05;;;19.60;99.90;;;;;;4952791;28;20407;-80
2022/06/17 11:44:55;;;;;;;1.45;0.95;;;19.70;99.90;;;;;;4953877;28;20750;-79
2022/06/17 11:47:25;;;;;;;1.88;0.90;;;19.80;99.90;;;;;;4950008;28;20400;-80
2022/06/17 11:49:57;;;;;;;4.10;0.90;;;19.90;99.90;;;;;;4953911;28;20482;-79
2022/06/17 11:52:35;;;;;;;5.60;1.10;;;19.80;99.90;;;;;;4942549;28;20411;-80
2022/06/17 11:55:04;;;;;;;4.32;1.08;;;19.90;99.90;;;;;;4952077;28;20394;-80
2022/06/17 11:57:39;;;;;;;1.43;0.87;;;20.00;99.90;;;;;;4944173;28;20435;-80
2022/06/17 12:00:23;;;;;;;1.10;0.90;;;20.20;99.90;;;;;;4954845;28;20498;-79
2022/06/17 12:03:01;;;;;;;4.47;1.10;;;20.10;99.90;;;;;;4945106;28;20416;-79
2022/06/17 12:05:31;;;;;;;2.00;0.90;;;20.10;99.90;;;;;;4949590;28;20410;-80
2022/06/17 12:08:23;;;;;;;2.42;0.90;;;20.30;99.90;;;;;;4945932;28;20774;-80
2022/06/17 12:10:56;;;;;;;3.37;1.10;;;20.20;99.90;;;;;;4949621;28;20398;-80
2022/06/17 12:13:39;;;;;;;1.30;0.90;;;20.10;99.90;;;;;;4949385;28;20403;-80
2022/06/17 12:16:19;;;;;;;2.42;0.98;;;20.30;99.90;;;;;;4943490;28;20391;-80
2022/06/17 12:18:52;;;;;;;0.85;0.70;;;20.40;99.90;;;;;;4950465;28;20478;-80
2022/06/17 12:21:28;;;;;;;1.10;0.80;;;20.50;99.90;;;;;;4940199;28;20406;-80
2022/06/17 12:24:07;;;;;;;1.10;0.80;;;20.60;99.90;;;;;;4951801;28;20496;-79
2022/06/17 12:27:01;;;;;;;1.80;0.90;;;20.60;99.90;;;;;;4957139;28;20421;-80
2022/06/17 12:29:51;;;;;;;1.73;0.77;;;20.50;99.90;;;;;;4936940;28;20481;-79
2022/06/17 12:32:48;;;;;;;1.48;0.90;;;20.20;99.90;;;;;;4949418;28;20536;-80
2022/06/17 12:35:21;;;;;;;3.60;0.93;;;20.00;99.90;;;;;;4953785;28;20414;-80
2022/06/17 12:38:26;;;;;;;2.00;0.98;;;19.80;99.90;;;;;;4965882;28;20407;-81
2022/06/17 12:41:10;;;;;;;4.45;1.20;;;19.80;99.90;;;;;;4954981;28;20914;-79
2022/06/17 12:44:01;;;;;;;1.55;1.00;;;19.80;99.90;;;;;;4958450;28;20956;-80
2022/06/17 12:47:00;;;;;;;2.00;0.90;;;19.90;99.90;;;;;;4962831;28;20404;-80
2022/06/17 12:53:15;;;;;;;1.40;1.00;;;20.30;99.90;;;;;;4958823;28;20781;-79
2022/06/17 12:56:08;;;;;;;1.90;0.90;;;20.10;99.90;;;;;;4954033;28;20429;-80
2022/06/17 12:58:54;;;;;;;2.35;1.00;;;20.20;99.90;;;;;;4957647;28;20415;-80
2022/06/17 13:01:39;;;;;;;2.80;1.03;;;20.50;99.90;;;;;;4946411;28;20406;-80
2022/06/17 13:04:06;;;;;;;1.73;0.88;;;20.70;99.90;;;;;;4942416;28;20408;-80
2022/06/17 13:06:58;;;;;;;1.53;0.80;;;20.80;99.90;;;;;;4954915;28;20869;-79
2022/06/17 13:09:43;;;;;;;1.50;0.80;;;21.00;99.90;;;;;;4959840;28;20383;-80
2022/06/17 13:12:21;;;;;;;3.63;0.90;;;21.00;99.90;;;;;;4960919;28;20442;-80
2022/06/17 13:15:14;;;;;;;4.50;1.10;;;21.10;99.90;;;;;;4957727;28;20399;-79
2022/06/17 13:18:07;;;;;;;2.72;0.90;;;21.20;99.90;;;;;;4925662;28;20409;-81
2022/06/17 13:21:01;;;;;;;2.03;0.93;;;21.40;99.90;;;;;;4942910;28;20796;-82
2022/06/17 13:23:51;;;;;;;1.20;0.90;;;21.30;99.90;;;;;;4954820;28;20508;-82
2022/06/17 13:26:30;;;;;;;2.15;0.90;;;21.00;99.90;;;;;;4952945;28;20391;-83
2022/06/17 13:29:34;;;;;;;2.33;1.02;;;20.80;99.90;;;;;;4947125;28;20409;-83
2022/06/17 13:32:25;;;;;;;1.63;0.90;;;20.90;99.90;;;;;;4954910;28;20906;-81
2022/06/17 13:35:06;;;;;;;1.97;0.90;;;21.20;99.90;;;;;;4934207;28;20407;-80
2022/06/17 13:38:02;;;;;;;1.38;0.90;;;21.30;99.90;;;;;;4953737;28;20508;-82
2022/06/17 13:40:40;;;;;;;2.97;1.05;;;20.90;99.90;;;;;;4966253;28;20415;-82
2022/06/17 13:43:17;;;;;;;1.60;0.80;;;20.60;99.90;;;;;;4949188;28;20432;-81
2022/06/17 13:45:56;;;;;;;2.17;1.10;;;20.50;99.90;;;;;;4963378;28;20399;-82
2022/06/17 13:48:59;;;;;;;1.98;0.82;;;20.80;99.90;;;;;;4951935;28;20402;-82
2022/06/17 13:51:55;;;;;;;2.45;1.00;;;20.90;99.90;;;;;;4942443;28;20391;-82
2022/06/17 13:54:47;;;;;;;5.33;1.20;;;21.10;99.90;;;;;;4944409;28;20417;-82
2022/06/17 13:57:37;;;;;;;2.78;0.90;;;21.30;99.90;;;;;;4941448;28;20478;-82
2022/06/17 14:00:20;;;;;;;3.17;1.00;;;21.60;99.90;;;;;;4957883;28;20443;-81